Terminal Aerodrome Forecast
Issued by NWS

Home | Current Version | Previous Version | Text Only | Print | Product List | Glossary On
Versions: 1 2 3 4 5 6 7 8 9 10 11 12 13 14
469
FTUS41 KLWX 021743
TAFMTN
TAF
KMTN 021743Z 0218/0318 13005KT 3SM BR BKN008
     FM022200 13004KT 3SM BR BKN025
     FM030000 VRB04KT 3SM -SHRA OVC025
     FM030600 06006KT 1 1/2SM RA OVC003
     FM031200 35010KT 3SM -RA BR OVC008
     FM031600 01006KT 3SM -SHRA OVC015=

USA.gov is the U.S. government's official web portal to all federal, state and local government web resources and services.